Ryoho Maru No.2 — JD2964 — position and weather

sailwx.info

Track history (hours):
 
Tides and Currents Weather Stations Pressure Air Temp Water Temp Dewpoint Dewpoint Depression Visibility Wind Speed Wind Dir Waves Ship Positions

Ryoho Maru No.2

Last reported at 2018-Jan-12 14:59 UTC. Time now 2018-Jan-24 04:03 UTC.
Position N 35°30' E 139°49'.
Warning: this ship's position is 11 days out of date.

Length 57 m; draft 4 m.

Type: Tanker. MMSI: 431001062.

Date/timePositionNaut miles runAvg speedWind from/ knotsBaromVisibWave heightAir tempDewpointWater temp
2018-Jan-12 14:59N 35°30' E 139°49'0 0.0
2018-Jan-12 14:29N 35°30' E 139°49'0 0.0
2018-Jan-12 13:56N 35°30' E 139°49'0 0.0
2018-Jan-12 13:17N 35°30' E 139°49'0 0.0
2018-Jan-12 12:59N 35°30' E 139°49'0 0.0
2018-Jan-12 12:29N 35°30' E 139°49'0 0.0
2018-Jan-12 11:53N 35°30' E 139°49'0 0.0
2018-Jan-12 11:20N 35°30' E 139°49'0 0.0
2018-Jan-12 10:59N 35°30' E 139°49'0 0.0
2018-Jan-12 09:41N 35°30' E 139°49'0 0.0
2018-Jan-12 09:26N 35°30' E 139°49'0 0.0
2018-Jan-12 08:50N 35°30' E 139°49'0 0.0
2018-Jan-12 08:20N 35°30' E 139°49'0 0.0
2018-Jan-12 07:44N 35°30' E 139°49'0 0.0
2018-Jan-12 07:26N 35°30' E 139°49'0 0.0
2018-Jan-12 06:56N 35°30' E 139°49'0 0.0
2018-Jan-12 06:29N 35°30' E 139°49'0 0.0
2018-Jan-12 05:59N 35°30' E 139°49'0 0.0
2018-Jan-12 05:29N 35°30' E 139°49'0 0.0
2018-Jan-12 04:59N 35°30' E 139°49'0 0.0
2018-Jan-12 04:26N 35°30' E 139°49'0 0.0
2018-Jan-12 03:42N 35°30' E 139°49'1 5.1
2018-Jan-12 03:30N 35°30' E 139°51'611.3
2018-Jan-12 03:00N 35°30' E 139°58'3 1.0
2018-Jan-11 23:45N 35°28' E 140°01'0 0.0
2018-Jan-11 23:18N 35°28' E 140°01'0 0.0
2018-Jan-11 22:57N 35°28' E 140°01'1 2.8
2018-Jan-11 22:30N 35°29' E 140°00'0 0.5
2018-Jan-11 21:56N 35°29' E 139°60'0 0.0
2018-Jan-11 21:26N 35°29' E 139°60'0 0.1
2018-Jan-11 20:56N 35°29' E 139°60'0 0.1
2018-Jan-11 20:26N 35°29' E 139°60'0 0.0
2018-Jan-11 19:44N 35°29' E 139°60'0 0.2
2018-Jan-11 19:26N 35°29' E 139°60'0 0.1
2018-Jan-11 18:59N 35°29' E 139°60'0 0.0
2018-Jan-11 18:29N 35°29' E 139°60'0 0.0
2018-Jan-11 17:59N 35°29' E 139°60'0 0.0
2018-Jan-11 17:29N 35°29' E 139°60'0 0.0
2018-Jan-11 16:59N 35°29' E 139°60'0 0.0
2018-Jan-11 16:26N 35°29' E 139°60'0 0.0
2018-Jan-11 15:56N 35°29' E 139°60'0 0.0
2018-Jan-11 15:29N 35°29' E 139°60'0 0.0
2018-Jan-11 14:59N 35°29' E 139°60'0 0.0
2018-Jan-11 14:29N 35°29' E 139°60'0 0.0
2018-Jan-11 13:50N 35°29' E 139°60'0 0.0
2018-Jan-11 13:29N 35°29' E 139°60'0 0.0
2018-Jan-11 12:59N 35°29' E 139°60'0 0.0
2018-Jan-11 12:26N 35°29' E 139°60'0 0.0
2018-Jan-11 11:59N 35°29' E 139°60'0 0.0
2018-Jan-11 11:29N 35°29' E 139°60'0 0.0
2018-Jan-11 10:59N 35°29' E 139°60'0 0.0
2018-Jan-11 10:29N 35°29' E 139°60'0 0.0
2018-Jan-11 09:59N 35°29' E 139°60'0 0.0
2018-Jan-11 09:23N 35°29' E 139°60'0 0.0
2018-Jan-11 08:59N 35°29' E 139°60'0 0.0
2018-Jan-11 08:23N 35°29' E 139°60'0 0.0
2018-Jan-11 07:50N 35°29' E 139°60'0 0.3
2018-Jan-11 07:30N 35°29' E 139°60'510.8
2018-Jan-11 07:00N 35°29' E 139°53'510.7
2018-Jan-11 06:30N 35°30' E 139°47'2 3.2
2018-Jan-11 05:58N 35°32' E 139°45'0 0.0
2018-Jan-11 05:30N 35°32' E 139°45'0 0.0
2018-Jan-11 05:00N 35°32' E 139°45'0 0.0
2018-Jan-11 04:30N 35°32' E 139°45'0 0.0
2018-Jan-11 04:00N 35°32' E 139°45'1 2.1
2018-Jan-11 03:30N 35°31' E 139°46'1 2.8
2018-Jan-11 02:58N 35°29' E 139°47'0 0.0
2018-Jan-11 02:29N 35°29' E 139°47'0 0.0
2018-Jan-11 01:55N 35°29' E 139°47'0 0.0
2018-Jan-11 01:28N 35°29' E 139°47'0 0.0
2018-Jan-11 00:49N 35°29' E 139°47'0 0.0
2018-Jan-11 00:23N 35°29' E 139°47'0 0.0
2018-Jan-10 23:56N 35°29' E 139°47'0 0.0
2018-Jan-10 23:25N 35°29' E 139°47'0 0.1
2018-Jan-10 22:58N 35°29' E 139°47'0 0.0
2018-Jan-10 22:28N 35°29' E 139°47'0 0.0
2018-Jan-10 21:58N 35°29' E 139°47'0 0.0
2018-Jan-10 21:29N 35°29' E 139°47'0 0.0
2018-Jan-10 20:58N 35°29' E 139°47'0 0.0
2018-Jan-10 20:28N 35°29' E 139°47'0 0.0
2018-Jan-10 19:58N 35°29' E 139°47'0 0.0
2018-Jan-10 19:29N 35°29' E 139°47'0 0.0
2018-Jan-10 18:58N 35°29' E 139°47'0 0.1
2018-Jan-10 18:28N 35°29' E 139°47'0 0.0
2018-Jan-10 17:58N 35°29' E 139°47'0 0.0
2018-Jan-10 17:28N 35°29' E 139°47'0 0.0
2018-Jan-10 16:58N 35°29' E 139°47'0 0.0
2018-Jan-10 16:29N 35°29' E 139°47'0 0.0
2018-Jan-10 15:58N 35°29' E 139°47'0 0.0
2018-Jan-10 15:28N 35°29' E 139°47'0 0.0
2018-Jan-10 14:58N 35°29' E 139°47'0 0.0
2018-Jan-10 14:28N 35°29' E 139°47'0 0.0
2018-Jan-10 13:58N 35°29' E 139°47'0 0.0
2018-Jan-10 13:25N 35°29' E 139°47'3 6.0
2018-Jan-10 13:01N 35°27' E 139°47'611.6
2018-Jan-10 12:31N 35°21' E 139°45'510.8
2018-Jan-10 12:01N 35°16' E 139°46'510.9
2018-Jan-10 11:31N 35°11' E 139°47'510.8
2018-Jan-10 11:00N 35°05' E 139°46'510.5
2018-Jan-10 10:29N 34°60' E 139°44'5 8.9
2018-Jan-10 09:59N 34°56' E 139°46'13 6.6
2018-Jan-10 08:04N 34°57' E 140°01'1 8.2
2018-Jan-10 08:00N 34°57' E 140°02'4 7.9
2018-Jan-10 07:30N 35°00' E 140°05'  
2018-Jan-04 15:23N 35°01' E 140°11'5 8.5
2018-Jan-04 14:51N 34°59' E 140°06'4 8.2
2018-Jan-04 14:25N 34°57' E 140°03'12 7.7
2018-Jan-04 12:55N 34°52' E 139°49'4 9.6
2018-Jan-04 12:29N 34°55' E 139°46'5 9.7
2018-Jan-04 12:01N 34°60' E 139°44'5 9.7
2018-Jan-04 11:31N 35°04' E 139°46'510.0
2018-Jan-04 11:01N 35°09' E 139°46'510.6
2018-Jan-04 10:31N 35°15' E 139°47'510.4
2018-Jan-04 10:01N 35°19' E 139°43'5 9.9
2018-Jan-04 09:31N 35°24' E 139°43'510.0
2018-Jan-04 09:01N 35°27' E 139°48'5 9.7
2018-Jan-04 08:31N 35°30' E 139°53'5 9.8
2018-Jan-04 08:00N 35°29' E 139°59'2 0.3
2018-Jan-04 01:02N 35°28' E 140°01'0 0.0
2018-Jan-04 00:32N 35°28' E 140°01'0 0.0
2018-Jan-03 23:11N 35°28' E 140°01'0 0.5
2018-Jan-03 23:00N 35°28' E 140°01'3 6.9
2018-Jan-03 22:30N 35°31' E 139°58'611.2
2018-Jan-03 22:00N 35°36' E 139°55'1 1.3
2018-Jan-03 21:26N 35°37' E 139°55'0 0.0
2018-Jan-03 18:35N 35°37' E 139°55'0 0.0
2018-Jan-03 17:32N 35°37' E 139°55'0 0.0
2018-Jan-03 17:02N 35°37' E 139°55'0 0.0
2018-Jan-03 16:59N 35°37' E 139°55'0 0.0
2018-Jan-03 15:50N 35°37' E 139°55'0 0.0
2018-Jan-03 15:14N 35°37' E 139°55'0 0.0
2018-Jan-03 14:50N 35°37' E 139°55'0 0.0
2018-Jan-03 14:14N 35°37' E 139°55'0 0.0
2018-Jan-03 13:38N 35°37' E 139°55'0 0.0
2018-Jan-03 13:20N 35°37' E 139°55'0 0.0
2018-Jan-03 12:56N 35°37' E 139°55'0 0.0
2018-Jan-03 12:26N 35°37' E 139°55'0 0.0
2018-Jan-03 11:50N 35°37' E 139°55'0 0.0
2018-Jan-03 11:29N 35°37' E 139°55'0 0.0
2018-Jan-03 10:41N 35°37' E 139°55'0 0.0
2018-Jan-03 09:08N 35°37' E 139°55'0 0.0
2018-Jan-03 08:50N 35°37' E 139°55'0 0.0
2018-Jan-03 07:32N 35°37' E 139°55'0 0.0
2018-Jan-03 07:02N 35°37' E 139°55'0 0.2
2018-Jan-03 06:44N 35°37' E 139°55'0 0.1
2018-Jan-03 06:14N 35°37' E 139°55'0 0.0
2018-Jan-03 05:14N 35°37' E 139°55'0 0.0
2018-Jan-03 04:44N 35°37' E 139°55'0 0.0
2018-Jan-03 04:14N 35°37' E 139°55'0 0.0
2018-Jan-03 03:56N 35°37' E 139°55'0 0.0
2018-Jan-03 02:32N 35°37' E 139°55'0 0.1
2018-Jan-03 02:20N 35°37' E 139°55'0 0.0
2018-Jan-03 01:50N 35°37' E 139°55'0 0.1
2018-Jan-03 01:20N 35°37' E 139°55'0 0.0
2018-Jan-03 00:50N 35°37' E 139°55'0 0.0
2018-Jan-03 00:14N 35°37' E 139°55'0 0.0
2018-Jan-02 23:53N 35°37' E 139°55'0 0.0
2018-Jan-02 22:02N 35°37' E 139°55'0 0.0
2018-Jan-02 21:56N 35°37' E 139°55'0 0.0
2018-Jan-02 21:14N 35°37' E 139°55'0 0.0
2018-Jan-02 20:59N 35°37' E 139°55'0 0.0
2018-Jan-02 19:14N 35°37' E 139°55'0 0.0
2018-Jan-02 17:14N 35°37' E 139°55'0 0.0
2018-Jan-02 16:50N 35°37' E 139°55'0 0.0
2018-Jan-02 16:08N 35°37' E 139°55'0 0.0
2018-Jan-02 15:56N 35°37' E 139°55'0 0.0
2018-Jan-02 15:26N 35°37' E 139°55'  
Track history (hours):
 
Tides and Currents Weather Stations Pressure Air Temp Water Temp Dewpoint Dewpoint Depression Visibility Wind Speed Wind Dir Waves Ship Positions

Ryoho Maru No.2

Last reported at 2018-Jan-12 14:59 UTC. Time now 2018-Jan-24 04:03 UTC.
Position N 35°30' E 139°49'.
Warning: this ship's position is 11 days out of date.

Length 57 m; draft 4 m.

Type: Tanker. MMSI: 431001062.

Date/timePositionNaut miles runAvg speedWind from/ knotsBaromVisibWave heightAir tempDewpointWater temp
2018-Jan-12 14:59N 35°30' E 139°49'0 0.0
2018-Jan-12 14:29N 35°30' E 139°49'0 0.0
2018-Jan-12 13:56N 35°30' E 139°49'0 0.0
2018-Jan-12 13:17N 35°30' E 139°49'0 0.0
2018-Jan-12 12:59N 35°30' E 139°49'0 0.0
2018-Jan-12 12:29N 35°30' E 139°49'0 0.0
2018-Jan-12 11:53N 35°30' E 139°49'0 0.0
2018-Jan-12 11:20N 35°30' E 139°49'0 0.0
2018-Jan-12 10:59N 35°30' E 139°49'0 0.0
2018-Jan-12 09:41N 35°30' E 139°49'0 0.0
2018-Jan-12 09:26N 35°30' E 139°49'0 0.0
2018-Jan-12 08:50N 35°30' E 139°49'0 0.0
2018-Jan-12 08:20N 35°30' E 139°49'0 0.0
2018-Jan-12 07:44N 35°30' E 139°49'0 0.0
2018-Jan-12 07:26N 35°30' E 139°49'0 0.0
2018-Jan-12 06:56N 35°30' E 139°49'0 0.0
2018-Jan-12 06:29N 35°30' E 139°49'0 0.0
2018-Jan-12 05:59N 35°30' E 139°49'0 0.0
2018-Jan-12 05:29N 35°30' E 139°49'0 0.0
2018-Jan-12 04:59N 35°30' E 139°49'0 0.0
2018-Jan-12 04:26N 35°30' E 139°49'0 0.0
2018-Jan-12 03:42N 35°30' E 139°49'1 5.1
2018-Jan-12 03:30N 35°30' E 139°51'611.3
2018-Jan-12 03:00N 35°30' E 139°58'3 1.0
2018-Jan-11 23:45N 35°28' E 140°01'0 0.0
2018-Jan-11 23:18N 35°28' E 140°01'0 0.0
2018-Jan-11 22:57N 35°28' E 140°01'1 2.8
2018-Jan-11 22:30N 35°29' E 140°00'0 0.5
2018-Jan-11 21:56N 35°29' E 139°60'0 0.0
2018-Jan-11 21:26N 35°29' E 139°60'0 0.1
2018-Jan-11 20:56N 35°29' E 139°60'0 0.1
2018-Jan-11 20:26N 35°29' E 139°60'0 0.0
2018-Jan-11 19:44N 35°29' E 139°60'0 0.2
2018-Jan-11 19:26N 35°29' E 139°60'0 0.1
2018-Jan-11 18:59N 35°29' E 139°60'0 0.0
2018-Jan-11 18:29N 35°29' E 139°60'0 0.0
2018-Jan-11 17:59N 35°29' E 139°60'0 0.0
2018-Jan-11 17:29N 35°29' E 139°60'0 0.0
2018-Jan-11 16:59N 35°29' E 139°60'0 0.0
2018-Jan-11 16:26N 35°29' E 139°60'0 0.0
2018-Jan-11 15:56N 35°29' E 139°60'0 0.0
2018-Jan-11 15:29N 35°29' E 139°60'0 0.0
2018-Jan-11 14:59N 35°29' E 139°60'0 0.0
2018-Jan-11 14:29N 35°29' E 139°60'0 0.0
2018-Jan-11 13:50N 35°29' E 139°60'0 0.0
2018-Jan-11 13:29N 35°29' E 139°60'0 0.0
2018-Jan-11 12:59N 35°29' E 139°60'0 0.0
2018-Jan-11 12:26N 35°29' E 139°60'0 0.0
2018-Jan-11 11:59N 35°29' E 139°60'0 0.0
2018-Jan-11 11:29N 35°29' E 139°60'0 0.0
2018-Jan-11 10:59N 35°29' E 139°60'0 0.0
2018-Jan-11 10:29N 35°29' E 139°60'0 0.0
2018-Jan-11 09:59N 35°29' E 139°60'0 0.0
2018-Jan-11 09:23N 35°29' E 139°60'0 0.0
2018-Jan-11 08:59N 35°29' E 139°60'0 0.0
2018-Jan-11 08:23N 35°29' E 139°60'0 0.0
2018-Jan-11 07:50N 35°29' E 139°60'0 0.3
2018-Jan-11 07:30N 35°29' E 139°60'510.8
2018-Jan-11 07:00N 35°29' E 139°53'510.7
2018-Jan-11 06:30N 35°30' E 139°47'2 3.2
2018-Jan-11 05:58N 35°32' E 139°45'0 0.0
2018-Jan-11 05:30N 35°32' E 139°45'0 0.0
2018-Jan-11 05:00N 35°32' E 139°45'0 0.0
2018-Jan-11 04:30N 35°32' E 139°45'0 0.0
2018-Jan-11 04:00N 35°32' E 139°45'1 2.1
2018-Jan-11 03:30N 35°31' E 139°46'1 2.8
2018-Jan-11 02:58N 35°29' E 139°47'0 0.0
2018-Jan-11 02:29N 35°29' E 139°47'0 0.0
2018-Jan-11 01:55N 35°29' E 139°47'0 0.0
2018-Jan-11 01:28N 35°29' E 139°47'0 0.0
2018-Jan-11 00:49N 35°29' E 139°47'0 0.0
2018-Jan-11 00:23N 35°29' E 139°47'0 0.0
2018-Jan-10 23:56N 35°29' E 139°47'0 0.0
2018-Jan-10 23:25N 35°29' E 139°47'0 0.1
2018-Jan-10 22:58N 35°29' E 139°47'0 0.0
2018-Jan-10 22:28N 35°29' E 139°47'0 0.0
2018-Jan-10 21:58N 35°29' E 139°47'0 0.0
2018-Jan-10 21:29N 35°29' E 139°47'0 0.0
2018-Jan-10 20:58N 35°29' E 139°47'0 0.0
2018-Jan-10 20:28N 35°29' E 139°47'0 0.0
2018-Jan-10 19:58N 35°29' E 139°47'0 0.0
2018-Jan-10 19:29N 35°29' E 139°47'0 0.0
2018-Jan-10 18:58N 35°29' E 139°47'0 0.1
2018-Jan-10 18:28N 35°29' E 139°47'0 0.0
2018-Jan-10 17:58N 35°29' E 139°47'0 0.0
2018-Jan-10 17:28N 35°29' E 139°47'0 0.0
2018-Jan-10 16:58N 35°29' E 139°47'0 0.0
2018-Jan-10 16:29N 35°29' E 139°47'0 0.0
2018-Jan-10 15:58N 35°29' E 139°47'0 0.0
2018-Jan-10 15:28N 35°29' E 139°47'0 0.0
2018-Jan-10 14:58N 35°29' E 139°47'0 0.0
2018-Jan-10 14:28N 35°29' E 139°47'0 0.0
2018-Jan-10 13:58N 35°29' E 139°47'0 0.0
2018-Jan-10 13:25N 35°29' E 139°47'3 6.0
2018-Jan-10 13:01N 35°27' E 139°47'611.6
2018-Jan-10 12:31N 35°21' E 139°45'510.8
2018-Jan-10 12:01N 35°16' E 139°46'510.9
2018-Jan-10 11:31N 35°11' E 139°47'510.8
2018-Jan-10 11:00N 35°05' E 139°46'510.5
2018-Jan-10 10:29N 34°60' E 139°44'5 8.9
2018-Jan-10 09:59N 34°56' E 139°46'13 6.6
2018-Jan-10 08:04N 34°57' E 140°01'1 8.2
2018-Jan-10 08:00N 34°57' E 140°02'4 7.9
2018-Jan-10 07:30N 35°00' E 140°05'  
2018-Jan-04 15:23N 35°01' E 140°11'5 8.5
2018-Jan-04 14:51N 34°59' E 140°06'4 8.2
2018-Jan-04 14:25N 34°57' E 140°03'12 7.7
2018-Jan-04 12:55N 34°52' E 139°49'4 9.6
2018-Jan-04 12:29N 34°55' E 139°46'5 9.7
2018-Jan-04 12:01N 34°60' E 139°44'5 9.7
2018-Jan-04 11:31N 35°04' E 139°46'510.0
2018-Jan-04 11:01N 35°09' E 139°46'510.6
2018-Jan-04 10:31N 35°15' E 139°47'510.4
2018-Jan-04 10:01N 35°19' E 139°43'5 9.9
2018-Jan-04 09:31N 35°24' E 139°43'510.0
2018-Jan-04 09:01N 35°27' E 139°48'5 9.7
2018-Jan-04 08:31N 35°30' E 139°53'5 9.8
2018-Jan-04 08:00N 35°29' E 139°59'2 0.3
2018-Jan-04 01:02N 35°28' E 140°01'0 0.0
2018-Jan-04 00:32N 35°28' E 140°01'0 0.0
2018-Jan-03 23:11N 35°28' E 140°01'0 0.5
2018-Jan-03 23:00N 35°28' E 140°01'3 6.9
2018-Jan-03 22:30N 35°31' E 139°58'611.2
2018-Jan-03 22:00N 35°36' E 139°55'1 1.3
2018-Jan-03 21:26N 35°37' E 139°55'0 0.0
2018-Jan-03 18:35N 35°37' E 139°55'0 0.0
2018-Jan-03 17:32N 35°37' E 139°55'0 0.0
2018-Jan-03 17:02N 35°37' E 139°55'0 0.0
2018-Jan-03 16:59N 35°37' E 139°55'0 0.0
2018-Jan-03 15:50N 35°37' E 139°55'0 0.0
2018-Jan-03 15:14N 35°37' E 139°55'0 0.0
2018-Jan-03 14:50N 35°37' E 139°55'0 0.0
2018-Jan-03 14:14N 35°37' E 139°55'0 0.0
2018-Jan-03 13:38N 35°37' E 139°55'0 0.0
2018-Jan-03 13:20N 35°37' E 139°55'0 0.0
2018-Jan-03 12:56N 35°37' E 139°55'0 0.0
2018-Jan-03 12:26N 35°37' E 139°55'0 0.0
2018-Jan-03 11:50N 35°37' E 139°55'0 0.0
2018-Jan-03 11:29N 35°37' E 139°55'0 0.0
2018-Jan-03 10:41N 35°37' E 139°55'0 0.0
2018-Jan-03 09:08N 35°37' E 139°55'0 0.0
2018-Jan-03 08:50N 35°37' E 139°55'0 0.0
2018-Jan-03 07:32N 35°37' E 139°55'0 0.0
2018-Jan-03 07:02N 35°37' E 139°55'0 0.2
2018-Jan-03 06:44N 35°37' E 139°55'0 0.1
2018-Jan-03 06:14N 35°37' E 139°55'0 0.0
2018-Jan-03 05:14N 35°37' E 139°55'0 0.0
2018-Jan-03 04:44N 35°37' E 139°55'0 0.0
2018-Jan-03 04:14N 35°37' E 139°55'0 0.0
2018-Jan-03 03:56N 35°37' E 139°55'0 0.0
2018-Jan-03 02:32N 35°37' E 139°55'0 0.1
2018-Jan-03 02:20N 35°37' E 139°55'0 0.0
2018-Jan-03 01:50N 35°37' E 139°55'0 0.1
2018-Jan-03 01:20N 35°37' E 139°55'0 0.0
2018-Jan-03 00:50N 35°37' E 139°55'0 0.0
2018-Jan-03 00:14N 35°37' E 139°55'0 0.0
2018-Jan-02 23:53N 35°37' E 139°55'0 0.0
2018-Jan-02 22:02N 35°37' E 139°55'0 0.0
2018-Jan-02 21:56N 35°37' E 139°55'0 0.0
2018-Jan-02 21:14N 35°37' E 139°55'0 0.0
2018-Jan-02 20:59N 35°37' E 139°55'0 0.0
2018-Jan-02 19:14N 35°37' E 139°55'0 0.0
2018-Jan-02 17:14N 35°37' E 139°55'0 0.0
2018-Jan-02 16:50N 35°37' E 139°55'0 0.0
2018-Jan-02 16:08N 35°37' E 139°55'0 0.0
2018-Jan-02 15:56N 35°37' E 139°55'0 0.0
2018-Jan-02 15:26N 35°37' E 139°55'  

Dump ship's entire track history